sensor_id;sensor_type;location;lat;lon;timestamp;pressure;altitude;pressure_sealevel;temperature;humidity
16834;BME280;8533;48.426;10.868;2023-04-07T00:00:29;96149.59;;;5.84;73.69
16834;BME280;8533;48.426;10.868;2023-04-07T00:02:57;96152.72;;;5.84;73.68
16834;BME280;8533;48.426;10.868;2023-04-07T00:05:24;96152.72;;;5.84;73.47
16834;BME280;8533;48.426;10.868;2023-04-07T00:07:52;96154.73;;;5.82;73.04
16834;BME280;8533;48.426;10.868;2023-04-07T00:10:19;96154.02;;;5.84;73.21
16834;BME280;8533;48.426;10.868;2023-04-07T00:12:48;96151.42;;;5.84;73.21
16834;BME280;8533;48.426;10.868;2023-04-07T00:15:15;96151.13;;;5.83;72.12
16834;BME280;8533;48.426;10.868;2023-04-07T00:17:43;96150.39;;;5.85;71.68
16834;BME280;8533;48.426;10.868;2023-04-07T00:20:11;96155.38;;;5.86;70.07
16834;BME280;8533;48.426;10.868;2023-04-07T00:22:38;96145.78;;;5.87;69.75
16834;BME280;8533;48.426;10.868;2023-04-07T00:25:07;96143.02;;;5.88;69.64
16834;BME280;8533;48.426;10.868;2023-04-07T00:27:34;96150.09;;;5.90;69.52
16834;BME280;8533;48.426;10.868;2023-04-07T00:30:02;96148.58;;;5.92;68.98
16834;BME280;8533;48.426;10.868;2023-04-07T00:32:30;96143.15;;;5.93;69.09
16834;BME280;8533;48.426;10.868;2023-04-07T00:34:57;96140.42;;;5.97;68.33
16834;BME280;8533;48.426;10.868;2023-04-07T00:37:25;96140.77;;;6.01;67.46
16834;BME280;8533;48.426;10.868;2023-04-07T00:39:52;96138.34;;;6.06;66.96
16834;BME280;8533;48.426;10.868;2023-04-07T00:42:19;96140.22;;;6.08;67.20
16834;BME280;8533;48.426;10.868;2023-04-07T00:44:47;96144.97;;;6.11;67.30
16834;BME280;8533;48.426;10.868;2023-04-07T00:47:14;96142.66;;;6.12;68.02
16834;BME280;8533;48.426;10.868;2023-04-07T00:49:42;96139.77;;;6.11;68.52
16834;BME280;8533;48.426;10.868;2023-04-07T00:52:10;96137.17;;;6.11;68.22
16834;BME280;8533;48.426;10.868;2023-04-07T00:54:40;96138.19;;;6.10;68.04
16834;BME280;8533;48.426;10.868;2023-04-07T00:57:08;96137.97;;;6.11;67.83
16834;BME280;8533;48.426;10.868;2023-04-07T00:59:36;96139.77;;;6.11;67.88
16834;BME280;8533;48.426;10.868;2023-04-07T01:02:24;96134.58;;;6.11;68.73
16834;BME280;8533;48.426;10.868;2023-04-07T01:10:30;96131.06;;;6.15;73.54
16834;BME280;8533;48.426;10.868;2023-04-07T01:13:07;96133.07;;;6.12;75.21
16834;BME280;8533;48.426;10.868;2023-04-07T01:15:30;96133.28;;;6.11;76.58
16834;BME280;8533;48.426;10.868;2023-04-07T01:18:12;96132.94;;;6.07;78.02
16834;BME280;8533;48.426;10.868;2023-04-07T01:20:35;96132.44;;;6.08;79.26
16834;BME280;8533;48.426;10.868;2023-04-07T01:23:05;96130.68;;;6.02;80.69
16834;BME280;8533;48.426;10.868;2023-04-07T01:26:03;96126.49;;;6.01;81.60
16834;BME280;8533;48.426;10.868;2023-04-07T01:31:31;96133.01;;;5.92;84.45
16834;BME280;8533;48.426;10.868;2023-04-07T01:34:02;96138.20;;;5.92;86.53
16834;BME280;8533;48.426;10.868;2023-04-07T01:36:30;96131.52;;;5.87;89.01
16834;BME280;8533;48.426;10.868;2023-04-07T01:39:00;96132.02;;;5.86;90.69
16834;BME280;8533;48.426;10.868;2023-04-07T01:41:29;96134.27;;;5.83;91.92
16834;BME280;8533;48.426;10.868;2023-04-07T01:43:57;96133.97;;;5.82;93.39
16834;BME280;8533;48.426;10.868;2023-04-07T01:46:27;96134.09;;;5.78;94.41
16834;BME280;8533;48.426;10.868;2023-04-07T01:48:55;96122.86;;;5.74;95.17
16834;BME280;8533;48.426;10.868;2023-04-07T01:51:23;96123.08;;;5.73;95.71
16834;BME280;8533;48.426;10.868;2023-04-07T01:53:52;96120.60;;;5.69;96.87
16834;BME280;8533;48.426;10.868;2023-04-07T01:56:20;96122.55;;;5.64;98.24
16834;BME280;8533;48.426;10.868;2023-04-07T01:58:48;96126.86;;;5.61;99.67
16834;BME280;8533;48.426;10.868;2023-04-07T02:01:15;96119.23;;;5.57;100.00
16834;BME280;8533;48.426;10.868;2023-04-07T02:03:48;96117.26;;;5.53;100.00
16834;BME280;8533;48.426;10.868;2023-04-07T02:06:17;96117.20;;;5.50;100.00
16834;BME280;8533;48.426;10.868;2023-04-07T02:08:47;96117.50;;;5.51;100.00
16834;BME280;8533;48.426;10.868;2023-04-07T02:11:16;96120.36;;;5.52;100.00
16834;BME280;8533;48.426;10.868;2023-04-07T02:13:45;96110.34;;;5.47;100.00
16834;BME280;8533;48.426;10.868;2023-04-07T02:16:14;96115.02;;;5.47;100.00
16834;BME280;8533;48.426;10.868;2023-04-07T02:18:44;96115.17;;;5.43;100.00
16834;BME280;8533;48.426;10.868;2023-04-07T02:21:18;96115.44;;;5.44;100.00
16834;BME280;8533;48.426;10.868;2023-04-07T02:23:45;96115.70;;;5.36;100.00
16834;BME280;8533;48.426;10.868;2023-04-07T02:26:13;96118.59;;;5.37;100.00
16834;BME280;8533;48.426;10.868;2023-04-07T02:28:40;96117.00;;;5.36;100.00
16834;BME280;8533;48.426;10.868;2023-04-07T02:31:07;96115.65;;;5.33;100.00
16834;BME280;8533;48.426;10.868;2023-04-07T02:33:35;96115.47;;;5.28;100.00
16834;BME280;8533;48.426;10.868;2023-04-07T02:36:02;96114.03;;;5.23;100.00
16834;BME280;8533;48.426;10.868;2023-04-07T02:38:31;96110.91;;;5.15;100.00
16834;BME280;8533;48.426;10.868;2023-04-07T02:40:58;96104.98;;;5.08;100.00
16834;BME280;8533;48.426;10.868;2023-04-07T02:43:26;96101.20;;;5.04;100.00
16834;BME280;8533;48.426;10.868;2023-04-07T02:45:53;96104.35;;;4.96;100.00
16834;BME280;8533;48.426;10.868;2023-04-07T02:48:21;96105.85;;;4.95;100.00
16834;BME280;8533;48.426;10.868;2023-04-07T02:50:49;96101.02;;;4.89;100.00
16834;BME280;8533;48.426;10.868;2023-04-07T02:53:16;96100.16;;;4.86;100.00
16834;BME280;8533;48.426;10.868;2023-04-07T02:55:44;96098.86;;;4.86;100.00
16834;BME280;8533;48.426;10.868;2023-04-07T02:58:11;96092.59;;;4.85;100.00
16834;BME280;8533;48.426;10.868;2023-04-07T03:00:39;96099.27;;;4.83;100.00
16834;BME280;8533;48.426;10.868;2023-04-07T03:03:06;96094.59;;;4.83;100.00
16834;BME280;8533;48.426;10.868;2023-04-07T03:05:34;96096.38;;;4.82;100.00
16834;BME280;8533;48.426;10.868;2023-04-07T03:08:01;96092.80;;;4.83;100.00
16834;BME280;8533;48.426;10.868;2023-04-07T03:10:28;96087.31;;;4.82;100.00
16834;BME280;8533;48.426;10.868;2023-04-07T03:12:56;96083.13;;;4.81;100.00
16834;BME280;8533;48.426;10.868;2023-04-07T03:15:24;96084.13;;;4.80;100.00
16834;BME280;8533;48.426;10.868;2023-04-07T03:17:51;96083.04;;;4.79;100.00
16834;BME280;8533;48.426;10.868;2023-04-07T03:20:19;96078.09;;;4.77;100.00
16834;BME280;8533;48.426;10.868;2023-04-07T03:22:46;96079.95;;;4.79;100.00
16834;BME280;8533;48.426;10.868;2023-04-07T03:25:14;96072.52;;;4.74;100.00
16834;BME280;8533;48.426;10.868;2023-04-07T03:27:41;96072.23;;;4.73;100.00
16834;BME280;8533;48.426;10.868;2023-04-07T03:30:09;96063.66;;;4.72;100.00
16834;BME280;8533;48.426;10.868;2023-04-07T03:32:37;96069.34;;;4.72;100.00
16834;BME280;8533;48.426;10.868;2023-04-07T03:35:04;96068.55;;;4.71;100.00
16834;BME280;8533;48.426;10.868;2023-04-07T03:37:32;96072.66;;;4.70;100.00
16834;BME280;8533;48.426;10.868;2023-04-07T03:39:59;96066.70;;;4.63;100.00
16834;BME280;8533;48.426;10.868;2023-04-07T03:42:27;96060.87;;;4.58;100.00
16834;BME280;8533;48.426;10.868;2023-04-07T03:44:54;96069.64;;;4.57;100.00
16834;BME280;8533;48.426;10.868;2023-04-07T03:47:22;96064.75;;;4.58;100.00
16834;BME280;8533;48.426;10.868;2023-04-07T03:49:49;96065.25;;;4.57;100.00
16834;BME280;8533;48.426;10.868;2023-04-07T03:52:16;96064.95;;;4.56;100.00
16834;BME280;8533;48.426;10.868;2023-04-07T03:54:44;96056.39;;;4.56;100.00
16834;BME280;8533;48.426;10.868;2023-04-07T03:57:11;96053.80;;;4.56;100.00
16834;BME280;8533;48.426;10.868;2023-04-07T03:59:39;96047.83;;;4.55;100.00
16834;BME280;8533;48.426;10.868;2023-04-07T04:02:06;96052.26;;;4.48;100.00
16834;BME280;8533;48.426;10.868;2023-04-07T04:04:34;96042.99;;;4.50;100.00
16834;BME280;8533;48.426;10.868;2023-04-07T04:07:01;96049.38;;;4.47;100.00
16834;BME280;8533;48.426;10.868;2023-04-07T04:09:29;96043.70;;;4.48;100.00
16834;BME280;8533;48.426;10.868;2023-04-07T04:11:57;96046.47;;;4.53;100.00
16834;BME280;8533;48.426;10.868;2023-04-07T04:14:25;96039.81;;;4.48;100.00
16834;BME280;8533;48.426;10.868;2023-04-07T04:16:53;96040.31;;;4.47;100.00
16834;BME280;8533;48.426;10.868;2023-04-07T04:19:20;96034.06;;;4.46;100.00
16834;BME280;8533;48.426;10.868;2023-04-07T04:21:48;96036.77;;;4.42;100.00
16834;BME280;8533;48.426;10.868;2023-04-07T04:24:16;96037.36;;;4.44;100.00
16834;BME280;8533;48.426;10.868;2023-04-07T04:26:43;96043.34;;;4.44;100.00
16834;BME280;8533;48.426;10.868;2023-04-07T04:29:11;96033.27;;;4.45;100.00
16834;BME280;8533;48.426;10.868;2023-04-07T04:31:38;96043.70;;;4.48;100.00
16834;BME280;8533;48.426;10.868;2023-04-07T04:34:05;96035.92;;;4.48;100.00
16834;BME280;8533;48.426;10.868;2023-04-07T04:36:33;96034.06;;;4.46;100.00
16834;BME280;8533;48.426;10.868;2023-04-07T04:39:00;96034.83;;;4.46;100.00
16834;BME280;8533;48.426;10.868;2023-04-07T04:41:28;96028.59;;;4.45;100.00
16834;BME280;8533;48.426;10.868;2023-04-07T04:43:55;96042.84;;;4.45;100.00
16834;BME280;8533;48.426;10.868;2023-04-07T04:46:23;96041.90;;;4.48;100.00
16834;BME280;8533;48.426;10.868;2023-04-07T04:48:51;96043.20;;;4.48;100.00
16834;BME280;8533;48.426;10.868;2023-04-07T04:51:19;96040.40;;;4.50;100.00
16834;BME280;8533;48.426;10.868;2023-04-07T04:53:47;96037.66;;;4.45;100.00
16834;BME280;8533;48.426;10.868;2023-04-07T04:56:14;96035.97;;;4.41;100.00
16834;BME280;8533;48.426;10.868;2023-04-07T04:58:42;96038.52;;;4.48;100.00
16834;BME280;8533;48.426;10.868;2023-04-07T05:01:14;96036.31;;;4.51;100.00
16834;BME280;8533;48.426;10.868;2023-04-07T05:03:41;96037.11;;;4.52;100.00
16834;BME280;8533;48.426;10.868;2023-04-07T05:06:10;96039.81;;;4.48;100.00
16834;BME280;8533;48.426;10.868;2023-04-07T05:08:37;96037.22;;;4.48;100.00
16834;BME280;8533;48.426;10.868;2023-04-07T05:11:05;96032.48;;;4.45;100.00
16834;BME280;8533;48.426;10.868;2023-04-07T05:13:32;96032.77;;;4.46;100.00
16834;BME280;8533;48.426;10.868;2023-04-07T05:15:59;96040.11;;;4.49;100.00
16834;BME280;8533;48.426;10.868;2023-04-07T05:18:27;96035.52;;;4.51;100.00
16834;BME280;8533;48.426;10.868;2023-04-07T05:20:54;96033.22;;;4.52;100.00
16834;BME280;8533;48.426;10.868;2023-04-07T05:23:23;96029.05;;;4.51;100.00
16834;BME280;8533;48.426;10.868;2023-04-07T05:25:50;96028.45;;;4.49;100.00
16834;BME280;8533;48.426;10.868;2023-04-07T05:28:18;96027.05;;;4.53;100.00
16834;BME280;8533;48.426;10.868;2023-04-07T05:30:45;96025.31;;;4.56;100.00
16834;BME280;8533;48.426;10.868;2023-04-07T05:33:14;96030.09;;;4.59;100.00
16834;BME280;8533;48.426;10.868;2023-04-07T05:35:43;96027.09;;;4.62;100.00
16834;BME280;8533;48.426;10.868;2023-04-07T05:38:11;96026.00;;;4.60;100.00
16834;BME280;8533;48.426;10.868;2023-04-07T05:40:39;96027.00;;;4.59;100.00
16834;BME280;8533;48.426;10.868;2023-04-07T05:43:07;96025.61;;;4.57;100.00
16834;BME280;8533;48.426;10.868;2023-04-07T05:45:34;96022.91;;;4.61;100.00
16834;BME280;8533;48.426;10.868;2023-04-07T05:48:02;96021.97;;;4.65;100.00
16834;BME280;8533;48.426;10.868;2023-04-07T05:50:29;96019.67;;;4.66;100.00
16834;BME280;8533;48.426;10.868;2023-04-07T05:52:57;96018.82;;;4.72;100.00
16834;BME280;8533;48.426;10.868;2023-04-07T05:55:24;96013.94;;;4.73;100.00
16834;BME280;8533;48.426;10.868;2023-04-07T05:57:52;96015.67;;;4.79;100.00
16834;BME280;8533;48.426;10.868;2023-04-07T06:00:21;96015.95;;;4.86;100.00
16834;BME280;8533;48.426;10.868;2023-04-07T06:02:49;96016.97;;;4.94;100.00
16834;BME280;8533;48.426;10.868;2023-04-07T06:05:16;96019.83;;;4.95;100.00
16834;BME280;8533;48.426;10.868;2023-04-07T06:07:44;96005.08;;;4.96;100.00
16834;BME280;8533;48.426;10.868;2023-04-07T06:10:11;96004.37;;;4.98;100.00
16834;BME280;8533;48.426;10.868;2023-04-07T06:12:40;96001.13;;;4.93;100.00
16834;BME280;8533;48.426;10.868;2023-04-07T06:15:07;96002.42;;;4.93;100.00
16834;BME280;8533;48.426;10.868;2023-04-07T06:17:35;96002.45;;;5.03;100.00
16834;BME280;8533;48.426;10.868;2023-04-07T06:20:02;96003.66;;;5.00;100.00
16834;BME280;8533;48.426;10.868;2023-04-07T06:22:31;96005.09;;;5.05;100.00
16834;BME280;8533;48.426;10.868;2023-04-07T06:24:58;96008.93;;;5.03;100.00
16834;BME280;8533;48.426;10.868;2023-04-07T06:27:26;96003.68;;;5.09;100.00
16834;BME280;8533;48.426;10.868;2023-04-07T06:29:54;96006.19;;;5.07;100.00
16834;BME280;8533;48.426;10.868;2023-04-07T06:32:22;96008.50;;;5.15;100.00
16834;BME280;8533;48.426;10.868;2023-04-07T06:34:50;96008.71;;;5.13;100.00
16834;BME280;8533;48.426;10.868;2023-04-07T06:37:18;96006.41;;;5.14;100.00
16834;BME280;8533;48.426;10.868;2023-04-07T06:39:45;96009.22;;;5.13;100.00
16834;BME280;8533;48.426;10.868;2023-04-07T06:42:13;96010.09;;;5.16;100.00
16834;BME280;8533;48.426;10.868;2023-04-07T06:44:40;96002.02;;;5.15;100.00
16834;BME280;8533;48.426;10.868;2023-04-07T06:47:08;95999.72;;;5.16;100.00
16834;BME280;8533;48.426;10.868;2023-04-07T06:49:35;95999.02;;;5.18;100.00
16834;BME280;8533;48.426;10.868;2023-04-07T06:52:03;96000.07;;;5.19;100.00
16834;BME280;8533;48.426;10.868;2023-04-07T06:54:31;95996.48;;;5.20;100.00
16834;BME280;8533;48.426;10.868;2023-04-07T06:56:58;96000.60;;;5.19;100.00
16834;BME280;8533;48.426;10.868;2023-04-07T06:59:26;95998.78;;;5.19;100.00
16834;BME280;8533;48.426;10.868;2023-04-07T07:01:54;95998.23;;;5.26;100.00
16834;BME280;8533;48.426;10.868;2023-04-07T07:04:21;95986.20;;;5.32;100.00
16834;BME280;8533;48.426;10.868;2023-04-07T07:06:49;95995.06;;;5.33;100.00
16834;BME280;8533;48.426;10.868;2023-04-07T07:09:16;95999.17;;;5.32;100.00
16834;BME280;8533;48.426;10.868;2023-04-07T07:11:44;95994.98;;;5.31;100.00
16834;BME280;8533;48.426;10.868;2023-04-07T07:14:11;95993.32;;;5.36;100.00
16834;BME280;8533;48.426;10.868;2023-04-07T07:16:39;95986.63;;;5.38;100.00
16834;BME280;8533;48.426;10.868;2023-04-07T07:19:06;95995.92;;;5.46;100.00
16834;BME280;8533;48.426;10.868;2023-04-07T07:21:35;96000.61;;;5.55;100.00
16834;BME280;8533;48.426;10.868;2023-04-07T07:24:02;95993.84;;;5.63;100.00
16834;BME280;8533;48.426;10.868;2023-04-07T07:26:30;96008.39;;;5.55;100.00
16834;BME280;8533;48.426;10.868;2023-04-07T07:28:57;95999.73;;;5.61;100.00
16834;BME280;8533;48.426;10.868;2023-04-07T07:31:24;95999.16;;;5.68;100.00
16834;BME280;8533;48.426;10.868;2023-04-07T07:33:52;95995.26;;;5.78;100.00
16834;BME280;8533;48.426;10.868;2023-04-07T07:36:19;95996.88;;;5.88;100.00
16834;BME280;8533;48.426;10.868;2023-04-07T07:38:54;95999.45;;;5.97;100.00
16834;BME280;8533;48.426;10.868;2023-04-07T07:41:18;95996.84;;;6.06;100.00
16834;BME280;8533;48.426;10.868;2023-04-07T07:43:46;95999.87;;;6.03;100.00
16834;BME280;8533;48.426;10.868;2023-04-07T07:46:13;95999.08;;;6.02;100.00
16834;BME280;8533;48.426;10.868;2023-04-07T07:48:41;95998.67;;;6.17;100.00
16834;BME280;8533;48.426;10.868;2023-04-07T07:51:08;96005.24;;;6.20;100.00
16834;BME280;8533;48.426;10.868;2023-04-07T07:53:36;96001.52;;;6.36;100.00
16834;BME280;8533;48.426;10.868;2023-04-07T07:56:03;95995.62;;;6.50;100.00
16834;BME280;8533;48.426;10.868;2023-04-07T07:58:34;95994.94;;;6.64;100.00
16834;BME280;8533;48.426;10.868;2023-04-07T08:01:00;95991.22;;;6.83;100.00
16834;BME280;8533;48.426;10.868;2023-04-07T08:03:29;95984.05;;;6.99;100.00
16834;BME280;8533;48.426;10.868;2023-04-07T08:05:57;95985.48;;;7.04;100.00
16834;BME280;8533;48.426;10.868;2023-04-07T08:08:24;95984.87;;;7.49;100.00
16834;BME280;8533;48.426;10.868;2023-04-07T08:10:52;95975.20;;;7.73;100.00
16834;BME280;8533;48.426;10.868;2023-04-07T08:13:19;95985.64;;;8.43;100.00
16834;BME280;8533;48.426;10.868;2023-04-07T08:15:47;95986.17;;;8.74;100.00
16834;BME280;8533;48.426;10.868;2023-04-07T08:18:14;95979.48;;;8.80;100.00
16834;BME280;8533;48.426;10.868;2023-04-07T08:20:42;95988.41;;;8.51;100.00
16834;BME280;8533;48.426;10.868;2023-04-07T08:23:09;95993.78;;;8.95;99.18
16834;BME280;8533;48.426;10.868;2023-04-07T08:25:37;95997.81;;;9.02;98.26
16834;BME280;8533;48.426;10.868;2023-04-07T08:28:07;95996.09;;;9.27;92.19
16834;BME280;8533;48.426;10.868;2023-04-07T08:30:35;95996.49;;;9.19;93.66
16834;BME280;8533;48.426;10.868;2023-04-07T08:33:04;95993.50;;;8.77;98.35
16834;BME280;8533;48.426;10.868;2023-04-07T08:35:32;95994.97;;;9.04;97.80
16834;BME280;8533;48.426;10.868;2023-04-07T08:37:59;95997.23;;;8.98;100.00
16834;BME280;8533;48.426;10.868;2023-04-07T08:40:28;95994.45;;;9.04;100.00
16834;BME280;8533;48.426;10.868;2023-04-07T08:42:57;95987.36;;;9.00;94.73
16834;BME280;8533;48.426;10.868;2023-04-07T08:45:32;95994.69;;;9.03;95.48
16834;BME280;8533;48.426;10.868;2023-04-07T08:47:58;95993.71;;;9.06;94.31
16834;BME280;8533;48.426;10.868;2023-04-07T08:50:30;95990.14;;;9.12;92.82
16834;BME280;8533;48.426;10.868;2023-04-07T08:53:00;95985.56;;;9.39;100.00
16834;BME280;8533;48.426;10.868;2023-04-07T08:55:29;95981.11;;;9.20;92.66
16834;BME280;8533;48.426;10.868;2023-04-07T08:57:57;95976.20;;;9.43;90.90
16834;BME280;8533;48.426;10.868;2023-04-07T09:00:24;95975.55;;;9.33;91.01
16834;BME280;8533;48.426;10.868;2023-04-07T09:02:58;95986.30;;;9.37;93.70
16834;BME280;8533;48.426;10.868;2023-04-07T09:05:26;95978.30;;;10.09;87.34
16834;BME280;8533;48.426;10.868;2023-04-07T09:07:55;95980.84;;;10.82;82.87
16834;BME280;8533;48.426;10.868;2023-04-07T09:10:22;95971.69;;;11.71;77.71
16834;BME280;8533;48.426;10.868;2023-04-07T09:12:50;95974.21;;;11.48;72.04
16834;BME280;8533;48.426;10.868;2023-04-07T09:15:17;95975.95;;;11.74;73.17
16834;BME280;8533;48.426;10.868;2023-04-07T09:17:45;95976.44;;;11.74;69.93
16834;BME280;8533;48.426;10.868;2023-04-07T09:20:13;95979.47;;;11.51;72.58
16834;BME280;8533;48.426;10.868;2023-04-07T09:22:43;95975.80;;;10.43;76.21
16834;BME280;8533;48.426;10.868;2023-04-07T09:25:24;95974.30;;;10.82;78.71
16834;BME280;8533;48.426;10.868;2023-04-07T09:27:59;95972.16;;;11.11;77.93
16834;BME280;8533;48.426;10.868;2023-04-07T09:30:27;95971.78;;;11.34;73.71
16834;BME280;8533;48.426;10.868;2023-04-07T09:32:57;95975.86;;;11.64;77.52
16834;BME280;8533;48.426;10.868;2023-04-07T09:35:25;95974.75;;;11.50;76.66
16834;BME280;8533;48.426;10.868;2023-04-07T09:38:12;95975.58;;;11.58;76.38
16834;BME280;8533;48.426;10.868;2023-04-07T09:40:38;95972.28;;;11.31;72.68
16834;BME280;8533;48.426;10.868;2023-04-07T09:43:06;95975.84;;;10.78;78.90
16834;BME280;8533;48.426;10.868;2023-04-07T09:45:35;95972.62;;;10.70;78.27
16834;BME280;8533;48.426;10.868;2023-04-07T09:48:08;95973.75;;;10.77;75.91
16834;BME280;8533;48.426;10.868;2023-04-07T09:50:39;95969.98;;;10.65;76.62
16834;BME280;8533;48.426;10.868;2023-04-07T09:53:09;95970.34;;;10.79;77.54
16834;BME280;8533;48.426;10.868;2023-04-07T09:55:38;95972.66;;;11.07;76.73
16834;BME280;8533;48.426;10.868;2023-04-07T09:58:10;95969.52;;;11.50;75.57
16834;BME280;8533;48.426;10.868;2023-04-07T10:00:40;95966.17;;;10.78;74.93
16834;BME280;8533;48.426;10.868;2023-04-07T10:03:07;95966.23;;;10.88;79.35
16834;BME280;8533;48.426;10.868;2023-04-07T10:05:42;95965.73;;;10.91;78.83
16834;BME280;8533;48.426;10.868;2023-04-07T10:08:09;95974.48;;;10.70;79.37
16834;BME280;8533;48.426;10.868;2023-04-07T10:10:44;95970.00;;;11.42;75.86
16834;BME280;8533;48.426;10.868;2023-04-07T10:13:09;95965.33;;;12.19;74.26
16834;BME280;8533;48.426;10.868;2023-04-07T10:15:37;95961.94;;;12.34;67.32
16834;BME280;8533;48.426;10.868;2023-04-07T10:18:06;95965.09;;;12.33;72.18
16834;BME280;8533;48.426;10.868;2023-04-07T10:20:41;95962.74;;;11.62;73.48
16834;BME280;8533;48.426;10.868;2023-04-07T10:23:15;95966.31;;;10.98;73.87
16834;BME280;8533;48.426;10.868;2023-04-07T10:25:42;95965.38;;;11.15;70.87
16834;BME280;8533;48.426;10.868;2023-04-07T10:28:13;95965.52;;;11.40;72.77
16834;BME280;8533;48.426;10.868;2023-04-07T10:30:42;95971.13;;;11.61;71.69
16834;BME280;8533;48.426;10.868;2023-04-07T10:33:10;95966.86;;;11.42;70.42
16834;BME280;8533;48.426;10.868;2023-04-07T10:36:06;95964.91;;;11.28;71.67
16834;BME280;8533;48.426;10.868;2023-04-07T10:38:33;95962.98;;;10.74;74.42
16834;BME280;8533;48.426;10.868;2023-04-07T10:43:48;95964.45;;;10.96;76.88
16834;BME280;8533;48.426;10.868;2023-04-07T10:46:18;95963.25;;;11.09;76.16
16834;BME280;8533;48.426;10.868;2023-04-07T10:49:06;95961.92;;;10.72;74.77
16834;BME280;8533;48.426;10.868;2023-04-07T10:51:16;95965.66;;;10.81;76.57
16834;BME280;8533;48.426;10.868;2023-04-07T10:54:22;95962.75;;;11.15;77.04
16834;BME280;8533;48.426;10.868;2023-04-07T10:56:23;95965.00;;;11.40;71.88
16834;BME280;8533;48.426;10.868;2023-04-07T10:59:13;95969.16;;;10.62;72.33
16834;BME280;8533;48.426;10.868;2023-04-07T11:01:24;95962.53;;;11.21;71.13
16834;BME280;8533;48.426;10.868;2023-04-07T11:03:55;95963.63;;;11.77;68.49
16834;BME280;8533;48.426;10.868;2023-04-07T11:06:24;95965.44;;;10.88;71.50
16834;BME280;8533;48.426;10.868;2023-04-07T11:08:52;95958.80;;;11.12;71.12
16834;BME280;8533;48.426;10.868;2023-04-07T11:11:37;95959.78;;;11.45;72.34
16834;BME280;8533;48.426;10.868;2023-04-07T11:14:05;95966.61;;;12.04;68.74
16834;BME280;8533;48.426;10.868;2023-04-07T11:16:42;95966.96;;;11.65;72.22
16834;BME280;8533;48.426;10.868;2023-04-07T11:19:10;95968.25;;;11.63;69.89
16834;BME280;8533;48.426;10.868;2023-04-07T11:21:38;95961.95;;;11.61;71.92
16834;BME280;8533;48.426;10.868;2023-04-07T11:24:06;95960.97;;;11.72;70.69
16834;BME280;8533;48.426;10.868;2023-04-07T11:26:39;95961.91;;;11.48;72.31
16834;BME280;8533;48.426;10.868;2023-04-07T11:29:07;95958.33;;;11.67;72.49
16834;BME280;8533;48.426;10.868;2023-04-07T11:31:36;95959.59;;;11.57;72.44
16834;BME280;8533;48.426;10.868;2023-04-07T11:34:06;95963.05;;;11.70;72.97
16834;BME280;8533;48.426;10.868;2023-04-07T11:36:41;95960.05;;;11.46;74.02
16834;BME280;8533;48.426;10.868;2023-04-07T11:39:21;95964.27;;;11.50;76.08
16834;BME280;8533;48.426;10.868;2023-04-07T11:41:50;95955.25;;;11.75;71.22
16834;BME280;8533;48.426;10.868;2023-04-07T11:44:18;95954.28;;;12.09;68.58
16834;BME280;8533;48.426;10.868;2023-04-07T11:46:56;95957.97;;;12.11;68.73
16834;BME280;8533;48.426;10.868;2023-04-07T11:49:23;95954.08;;;12.34;70.43
16834;BME280;8533;48.426;10.868;2023-04-07T11:52:01;95958.59;;;12.86;68.01
16834;BME280;8533;48.426;10.868;2023-04-07T11:54:44;95961.72;;;12.83;66.20
16834;BME280;8533;48.426;10.868;2023-04-07T11:57:12;95950.69;;;13.24;64.69
16834;BME280;8533;48.426;10.868;2023-04-07T11:59:42;95952.22;;;13.38;60.89
16834;BME280;8533;48.426;10.868;2023-04-07T12:02:10;95951.94;;;13.52;61.34
16834;BME280;8533;48.426;10.868;2023-04-07T12:04:54;95950.38;;;13.38;60.56
16834;BME280;8533;48.426;10.868;2023-04-07T12:07:10;95949.05;;;13.54;61.21
16834;BME280;8533;48.426;10.868;2023-04-07T12:09:38;95956.20;;;13.00;63.25
16834;BME280;8533;48.426;10.868;2023-04-07T12:12:07;95952.54;;;12.40;65.70
16834;BME280;8533;48.426;10.868;2023-04-07T12:14:36;95954.12;;;12.69;65.53
16834;BME280;8533;48.426;10.868;2023-04-07T12:17:04;95951.50;;;12.87;63.29
16834;BME280;8533;48.426;10.868;2023-04-07T12:19:32;95950.19;;;12.79;62.91
16834;BME280;8533;48.426;10.868;2023-04-07T12:22:02;95952.55;;;12.63;62.93
16834;BME280;8533;48.426;10.868;2023-04-07T12:24:29;95955.18;;;12.88;63.98
16834;BME280;8533;48.426;10.868;2023-04-07T12:26:57;95953.06;;;13.03;64.06
16834;BME280;8533;48.426;10.868;2023-04-07T12:29:25;95947.55;;;12.92;63.95
16834;BME280;8533;48.426;10.868;2023-04-07T12:31:53;95955.95;;;12.69;63.30
16834;BME280;8533;48.426;10.868;2023-04-07T12:34:22;95955.17;;;12.86;64.40
16834;BME280;8533;48.426;10.868;2023-04-07T12:36:50;95958.31;;;12.83;62.68
16834;BME280;8533;48.426;10.868;2023-04-07T12:39:18;95953.84;;;12.50;64.55
16834;BME280;8533;48.426;10.868;2023-04-07T12:41:45;95954.37;;;12.83;63.98
16834;BME280;8533;48.426;10.868;2023-04-07T12:44:14;95956.47;;;12.91;63.73
16834;BME280;8533;48.426;10.868;2023-04-07T12:46:43;95955.70;;;12.73;67.34
16834;BME280;8533;48.426;10.868;2023-04-07T12:49:10;95952.02;;;12.53;67.80
16834;BME280;8533;48.426;10.868;2023-04-07T12:51:38;95945.17;;;12.37;66.48
16834;BME280;8533;48.426;10.868;2023-04-07T12:54:05;95945.33;;;11.33;73.71
16834;BME280;8533;48.426;10.868;2023-04-07T12:56:33;95944.70;;;11.16;76.04
16834;BME280;8533;48.426;10.868;2023-04-07T12:59:00;95943.05;;;11.04;75.83
16834;BME280;8533;48.426;10.868;2023-04-07T13:01:28;95943.99;;;11.30;76.27
16834;BME280;8533;48.426;10.868;2023-04-07T13:03:55;95945.40;;;11.48;78.40
16834;BME280;8533;48.426;10.868;2023-04-07T13:06:23;95949.06;;;11.47;76.47
16834;BME280;8533;48.426;10.868;2023-04-07T13:08:50;95950.72;;;11.66;74.16
16834;BME280;8533;48.426;10.868;2023-04-07T13:11:18;95954.92;;;11.67;73.55
16834;BME280;8533;48.426;10.868;2023-04-07T13:13:47;95956.72;;;11.59;75.23
16834;BME280;8533;48.426;10.868;2023-04-07T13:16:14;95952.63;;;11.26;74.16
16834;BME280;8533;48.426;10.868;2023-04-07T13:18:42;95945.20;;;11.13;78.48
16834;BME280;8533;48.426;10.868;2023-04-07T13:21:09;95952.12;;;11.31;78.97